createdAt,value
2018-06-28T00:00:52.294Z,14.98
2018-06-28T00:03:19.227Z,14.98
2018-06-28T00:05:46.201Z,14.95
2018-06-28T00:08:13.116Z,14.61
2018-06-28T00:10:40.078Z,14.62
2018-06-28T00:13:07.009Z,14.70
2018-06-28T00:15:33.993Z,14.51
2018-06-28T00:18:00.922Z,14.47
2018-06-28T00:20:27.881Z,14.40
2018-06-28T00:22:54.825Z,14.45
2018-06-28T00:25:21.774Z,14.38
2018-06-28T00:27:48.695Z,14.19
2018-06-28T00:30:15.636Z,14.19
2018-06-28T00:32:42.582Z,14.34
2018-06-28T00:35:09.540Z,14.45
2018-06-28T00:37:36.470Z,14.42
2018-06-28T00:40:03.723Z,14.40
2018-06-28T00:42:30.670Z,14.29
2018-06-28T00:44:57.631Z,14.28
2018-06-28T00:47:24.561Z,14.31
2018-06-28T00:49:51.493Z,14.30
2018-06-28T00:52:18.479Z,14.24
2018-06-28T00:54:45.435Z,14.08
2018-06-28T00:57:12.393Z,14.01
2018-06-28T00:59:39.334Z,13.97
2018-06-28T01:02:06.297Z,13.95
2018-06-28T01:04:33.217Z,13.91
2018-06-28T01:07:00.197Z,13.89
2018-06-28T01:09:27.134Z,13.82
2018-06-28T01:11:54.086Z,13.82
2018-06-28T01:14:21.029Z,13.69
2018-06-28T01:16:47.987Z,13.76
2018-06-28T01:19:14.925Z,13.68
2018-06-28T01:21:41.857Z,13.60
2018-06-28T01:24:08.793Z,13.56
2018-06-28T01:26:35.742Z,13.51
2018-06-28T01:29:02.702Z,13.77
2018-06-28T01:31:29.701Z,13.59
2018-06-28T01:33:56.621Z,13.57
2018-06-28T01:36:23.565Z,13.46
2018-06-28T01:38:50.503Z,13.41
2018-06-28T01:41:17.792Z,13.30
2018-06-28T01:43:46.488Z,13.27
2018-06-28T01:46:13.864Z,13.28
2018-06-28T01:48:40.790Z,13.26
2018-06-28T01:51:07.785Z,13.21
2018-06-28T01:53:34.733Z,13.40
2018-06-28T01:56:01.690Z,13.33
2018-06-28T01:58:28.645Z,13.13
2018-06-28T02:00:55.596Z,13.16
2018-06-28T02:03:22.573Z,13.14
2018-06-28T02:05:50.668Z,13.02
2018-06-28T02:08:17.913Z,13.13
2018-06-28T02:10:44.858Z,13.39
2018-06-28T02:13:11.833Z,13.38
2018-06-28T02:15:38.769Z,13.28
2018-06-28T02:18:06.424Z,13.21
2018-06-28T02:20:33.404Z,13.20
2018-06-28T02:23:00.346Z,13.11
2018-06-28T02:25:27.306Z,13.08
2018-06-28T02:27:54.246Z,13.09
2018-06-28T02:30:21.298Z,13.05
2018-06-28T02:32:48.310Z,13.05
2018-06-28T02:35:15.259Z,13.11
2018-06-28T02:37:42.222Z,13.07
2018-06-28T02:40:09.196Z,13.04
2018-06-28T02:42:36.141Z,13.10
2018-06-28T02:45:03.198Z,13.05
2018-06-28T02:47:30.175Z,12.94
2018-06-28T02:49:57.156Z,12.95
2018-06-28T02:52:24.109Z,12.88
2018-06-28T02:54:51.074Z,12.84
2018-06-28T02:57:18.015Z,12.87
2018-06-28T02:59:44.931Z,12.81
2018-06-28T03:02:11.865Z,12.91
2018-06-28T03:04:38.804Z,12.85
2018-06-28T03:07:05.738Z,12.86
2018-06-28T03:09:32.666Z,12.82
2018-06-28T03:11:59.621Z,12.84
2018-06-28T03:14:26.561Z,12.89
2018-06-28T03:16:53.532Z,12.88
2018-06-28T03:19:20.481Z,12.85
2018-06-28T03:21:47.446Z,12.90
2018-06-28T03:24:14.361Z,12.83
2018-06-28T03:26:41.318Z,12.82
2018-06-28T03:29:08.244Z,12.82
2018-06-28T03:31:35.342Z,12.89
2018-06-28T03:34:02.291Z,12.87
2018-06-28T03:36:29.217Z,13.00
2018-06-28T03:38:56.176Z,12.98
2018-06-28T03:41:23.126Z,12.90
2018-06-28T03:43:50.049Z,12.92
2018-06-28T03:46:16.977Z,13.04
2018-06-28T03:48:43.949Z,13.13
2018-06-28T03:51:10.896Z,13.22
2018-06-28T03:53:37.833Z,13.26
2018-06-28T03:56:04.769Z,13.27
2018-06-28T03:58:31.713Z,13.36
2018-06-28T04:00:58.618Z,13.44
2018-06-28T04:03:25.550Z,13.47
2018-06-28T04:05:52.493Z,13.57
2018-06-28T04:08:19.413Z,13.63
2018-06-28T04:10:46.333Z,13.70
2018-06-28T04:13:13.308Z,13.84
2018-06-28T04:15:40.233Z,13.91
2018-06-28T04:18:07.176Z,13.98
2018-06-28T04:20:34.093Z,14.02
2018-06-28T04:23:01.018Z,14.11
2018-06-28T04:25:27.969Z,14.15
2018-06-28T04:27:54.887Z,14.30
2018-06-28T04:30:21.819Z,14.29
2018-06-28T04:32:48.774Z,14.38
2018-06-28T04:35:15.701Z,14.44
2018-06-28T04:37:42.613Z,14.57
2018-06-28T04:40:09.520Z,14.71
2018-06-28T04:42:36.453Z,14.76
2018-06-28T04:45:03.418Z,14.96
2018-06-28T04:47:30.341Z,15.05
2018-06-28T04:49:57.377Z,15.11
2018-06-28T04:52:24.197Z,15.14
2018-06-28T04:54:51.132Z,15.43
2018-06-28T04:57:18.053Z,15.48
2018-06-28T04:59:44.981Z,15.49
2018-06-28T05:02:11.898Z,15.60
2018-06-28T05:04:38.833Z,15.65
2018-06-28T05:07:05.804Z,15.76
2018-06-28T05:09:32.669Z,15.80
2018-06-28T05:11:59.574Z,16.07
2018-06-28T05:14:26.493Z,16.10
2018-06-28T05:16:53.404Z,16.15
2018-06-28T05:19:20.312Z,16.17
2018-06-28T05:21:47.214Z,16.25
2018-06-28T05:24:14.129Z,16.39
2018-06-28T05:26:41.049Z,16.60
2018-06-28T05:29:08.077Z,16.64
2018-06-28T05:31:34.939Z,16.65
2018-06-28T05:34:01.865Z,16.77
2018-06-28T05:36:28.785Z,16.96
2018-06-28T05:38:55.700Z,17.07
2018-06-28T05:41:22.905Z,17.30
2018-06-28T05:43:49.829Z,17.34
2018-06-28T05:46:16.737Z,17.42
2018-06-28T05:48:43.645Z,17.51
2018-06-28T05:51:10.562Z,17.54
2018-06-28T05:53:37.486Z,17.69
2018-06-28T05:56:04.433Z,17.86
2018-06-28T05:58:31.367Z,17.84
2018-06-28T06:00:58.282Z,17.88
2018-06-28T06:03:25.224Z,17.98
2018-06-28T06:05:52.117Z,18.05
2018-06-28T06:08:19.034Z,17.98
2018-06-28T06:10:45.966Z,18.10
2018-06-28T06:13:12.950Z,18.15
2018-06-28T06:15:39.870Z,18.37
2018-06-28T06:18:07.006Z,18.37
2018-06-28T06:20:33.925Z,18.21
2018-06-28T06:23:00.852Z,18.35
2018-06-28T06:25:27.793Z,18.66
2018-06-28T06:27:54.730Z,18.62
2018-06-28T06:30:21.678Z,18.89
2018-06-28T06:32:48.607Z,18.64
2018-06-28T06:35:15.538Z,18.90
2018-06-28T06:37:42.463Z,19.07
2018-06-28T06:40:09.409Z,19.58
2018-06-28T06:42:36.320Z,19.61
2018-06-28T06:45:03.610Z,19.48
2018-06-28T06:47:30.524Z,19.91
2018-06-28T06:49:57.489Z,19.46
2018-06-28T06:52:24.425Z,19.77
2018-06-28T06:54:51.353Z,19.68
2018-06-28T06:57:18.264Z,19.96
2018-06-28T06:59:45.195Z,20.12
2018-06-28T07:02:12.104Z,19.98
2018-06-28T07:04:39.057Z,20.36
2018-06-28T07:07:05.981Z,20.33
2018-06-28T07:09:32.949Z,20.91
2018-06-28T07:11:59.864Z,20.94
2018-06-28T07:14:26.789Z,21.30
2018-06-28T07:16:53.705Z,21.30
2018-06-28T07:19:20.622Z,21.26
2018-06-28T07:21:47.582Z,21.12
2018-06-28T07:24:14.526Z,21.43
2018-06-28T07:26:41.431Z,21.50
2018-06-28T07:29:08.608Z,21.47
2018-06-28T07:31:35.298Z,21.86
2018-06-28T07:34:02.241Z,21.56
2018-06-28T07:36:29.106Z,22.29
2018-06-28T07:38:56.005Z,22.27
2018-06-28T07:41:23.057Z,22.24
2018-06-28T07:43:49.949Z,22.72
2018-06-28T07:46:16.858Z,22.10
2018-06-28T07:48:43.873Z,22.72
2018-06-28T07:51:10.793Z,22.59
2018-06-28T07:53:37.697Z,23.18
2018-06-28T07:56:04.897Z,23.56
2018-06-28T07:58:31.780Z,23.47
2018-06-28T08:00:58.698Z,23.37
2018-06-28T08:03:25.576Z,23.05
2018-06-28T08:05:52.520Z,21.97
2018-06-28T08:08:19.454Z,23.03
2018-06-28T08:10:46.365Z,22.69
2018-06-28T08:13:13.258Z,22.33
2018-06-28T08:15:40.172Z,23.16
2018-06-28T08:18:07.100Z,22.49
2018-06-28T08:20:34.006Z,22.73
2018-06-28T08:23:00.908Z,23.32
2018-06-28T08:25:27.826Z,23.14
2018-06-28T08:27:54.722Z,23.57
2018-06-28T08:30:21.668Z,24.02
2018-06-28T08:32:48.588Z,24.90
2018-06-28T08:35:15.477Z,24.29
2018-06-28T08:37:42.363Z,24.57
2018-06-28T08:40:09.576Z,24.98
2018-06-28T08:42:36.193Z,24.87
2018-06-28T08:45:03.393Z,24.68
2018-06-28T08:47:30.350Z,24.56
2018-06-28T08:49:57.245Z,24.60
2018-06-28T08:52:24.177Z,24.09
2018-06-28T08:54:51.069Z,23.52
2018-06-28T08:57:17.972Z,24.40
2018-06-28T08:59:44.856Z,24.70
2018-06-28T09:02:11.856Z,24.52
2018-06-28T09:04:38.761Z,24.30
2018-06-28T09:07:05.669Z,23.99
2018-06-28T09:09:32.564Z,24.13
2018-06-28T09:11:59.477Z,24.93
2018-06-28T09:14:26.604Z,25.66
2018-06-28T09:16:53.517Z,24.78
2018-06-28T09:19:20.393Z,24.45
2018-06-28T09:21:47.295Z,25.08
2018-06-28T09:24:14.182Z,25.31
2018-06-28T09:26:41.100Z,24.94
2018-06-28T09:29:07.984Z,25.71
2018-06-28T09:31:34.996Z,25.30
2018-06-28T09:34:01.901Z,25.15
2018-06-28T09:36:28.806Z,24.66
2018-06-28T09:38:55.692Z,24.39
2018-06-28T09:41:22.584Z,25.76
2018-06-28T09:43:49.485Z,25.52
2018-06-28T09:46:16.394Z,25.21
2018-06-28T09:48:43.340Z,25.18
2018-06-28T09:51:10.225Z,24.42
2018-06-28T09:53:37.119Z,24.89
2018-06-28T09:56:04.305Z,24.60
2018-06-28T09:58:31.225Z,25.03
2018-06-28T10:00:58.120Z,24.96
2018-06-28T10:03:25.011Z,24.70
2018-06-28T10:05:51.929Z,26.03
2018-06-28T10:08:18.838Z,25.54
2018-06-28T10:10:45.716Z,25.66
2018-06-28T10:13:12.661Z,26.09
2018-06-28T10:15:39.521Z,25.71
2018-06-28T10:18:06.444Z,25.19
2018-06-28T10:20:33.379Z,25.28
2018-06-28T10:23:00.278Z,24.72
2018-06-28T10:25:27.157Z,25.68
2018-06-28T10:27:54.146Z,25.05
2018-06-28T10:30:21.044Z,26.56
2018-06-28T10:32:48.057Z,26.95
2018-06-28T10:35:14.969Z,24.89
2018-06-28T10:37:41.929Z,25.47
2018-06-28T10:40:08.842Z,25.99
2018-06-28T10:42:35.809Z,25.75
2018-06-28T10:45:02.754Z,25.59
2018-06-28T10:47:29.712Z,26.16
2018-06-28T10:49:56.601Z,24.96
2018-06-28T10:52:23.549Z,25.27
2018-06-28T10:54:50.769Z,25.49
2018-06-28T10:57:17.676Z,25.30
2018-06-28T10:59:44.572Z,25.58
2018-06-28T11:02:11.537Z,25.98
2018-06-28T11:04:38.448Z,26.21
2018-06-28T11:07:05.371Z,25.75
2018-06-28T11:09:32.310Z,25.57
2018-06-28T11:11:59.220Z,24.90
2018-06-28T11:14:26.105Z,26.45
2018-06-28T11:16:53.032Z,26.62
2018-06-28T11:19:19.932Z,27.07
2018-06-28T11:21:46.853Z,25.91
2018-06-28T11:24:13.762Z,25.98
2018-06-28T11:26:40.787Z,26.56
2018-06-28T11:29:07.670Z,26.18
2018-06-28T11:31:34.868Z,26.46
2018-06-28T11:34:01.854Z,26.76
2018-06-28T11:36:28.705Z,26.05
2018-06-28T11:38:55.600Z,26.37
2018-06-28T11:41:22.600Z,25.69
2018-06-28T11:43:49.531Z,25.82
2018-06-28T11:46:16.454Z,25.89
2018-06-28T11:48:43.415Z,26.98
2018-06-28T11:51:10.344Z,26.63
2018-06-28T11:53:37.277Z,25.86
2018-06-28T11:56:04.193Z,26.07
2018-06-28T11:58:31.139Z,26.76
2018-06-28T12:00:58.048Z,26.88
2018-06-28T12:03:24.974Z,27.19
2018-06-28T12:05:51.901Z,27.64
2018-06-28T12:08:18.828Z,26.82
2018-06-28T12:10:45.786Z,27.18
2018-06-28T12:13:12.690Z,27.10
2018-06-28T12:15:39.591Z,26.98
2018-06-28T12:18:06.526Z,26.71
2018-06-28T12:20:33.452Z,26.51
2018-06-28T12:23:00.365Z,26.88
2018-06-28T12:25:27.277Z,26.76
2018-06-28T12:27:54.214Z,26.70
2018-06-28T12:30:21.121Z,26.52
2018-06-28T12:32:48.050Z,26.09
2018-06-28T12:35:14.961Z,26.80
2018-06-28T12:37:41.889Z,25.76
2018-06-28T12:40:08.807Z,26.41
2018-06-28T12:42:35.732Z,26.84
2018-06-28T12:45:02.694Z,26.61
2018-06-28T12:47:46.981Z,26.43
2018-06-28T12:50:13.900Z,27.04
2018-06-28T12:52:48.837Z,26.41
2018-06-28T12:55:16.912Z,26.24
2018-06-28T12:57:44.266Z,26.78
2018-06-28T13:00:11.501Z,26.15
2018-06-28T13:02:38.421Z,26.92
2018-06-28T13:05:05.592Z,27.87
2018-06-28T13:07:32.517Z,26.59
2018-06-28T13:09:59.429Z,26.25
2018-06-28T13:12:26.378Z,26.53
2018-06-28T13:14:53.289Z,26.48
2018-06-28T13:17:20.193Z,27.07
2018-06-28T13:19:47.109Z,26.80
2018-06-28T13:22:14.158Z,26.14
2018-06-28T13:24:41.137Z,26.89
2018-06-28T13:27:08.005Z,27.12
2018-06-28T13:29:34.909Z,27.47
2018-06-28T13:32:01.847Z,27.06
2018-06-28T13:34:28.754Z,27.16
2018-06-28T13:36:55.683Z,27.32
2018-06-28T13:39:22.647Z,27.52
2018-06-28T13:41:49.581Z,27.37
2018-06-28T13:44:16.489Z,27.20
2018-06-28T13:46:43.404Z,27.10
2018-06-28T13:49:10.366Z,26.73
2018-06-28T13:51:37.252Z,26.46
2018-06-28T13:54:04.229Z,27.18
2018-06-28T13:56:31.104Z,26.56
2018-06-28T13:58:59.927Z,26.29
2018-06-28T14:01:28.491Z,26.53
2018-06-28T14:03:56.777Z,25.79
2018-06-28T14:06:23.709Z,26.49
2018-06-28T14:08:50.633Z,26.22
2018-06-28T14:11:17.549Z,26.41
2018-06-28T14:13:44.468Z,26.19
2018-06-28T14:16:11.408Z,26.32
2018-06-28T14:18:38.330Z,26.35
2018-06-28T14:21:05.286Z,26.34
2018-06-28T14:23:32.197Z,26.42
2018-06-28T14:25:59.144Z,26.35
2018-06-28T14:28:26.069Z,26.39
2018-06-28T14:30:53.003Z,26.49
2018-06-28T14:33:19.929Z,26.52
2018-06-28T14:35:46.832Z,26.82
2018-06-28T14:38:13.734Z,27.22
2018-06-28T14:40:40.670Z,26.27
2018-06-28T14:43:07.686Z,26.52
2018-06-28T14:45:34.612Z,26.30
2018-06-28T14:48:01.605Z,26.76
2018-06-28T14:50:28.593Z,26.53
2018-06-28T14:52:55.496Z,26.38
2018-06-28T14:55:22.406Z,26.32
2018-06-28T14:57:49.457Z,25.92
2018-06-28T15:00:16.434Z,26.03
2018-06-28T15:02:43.533Z,26.20
2018-06-28T15:05:10.518Z,26.20
2018-06-28T15:07:37.469Z,25.98
2018-06-28T15:10:04.780Z,26.45
2018-06-28T15:12:31.829Z,25.93
2018-06-28T15:14:58.758Z,25.79
2018-06-28T15:17:25.665Z,25.70
2018-06-28T15:19:52.598Z,25.53
2018-06-28T15:22:19.666Z,25.75
2018-06-28T15:24:46.708Z,25.41
2018-06-28T15:27:13.734Z,25.65
2018-06-28T15:29:41.132Z,25.37
2018-06-28T15:32:08.068Z,25.71
2018-06-28T15:34:35.087Z,25.85
2018-06-28T15:37:02.008Z,25.79
2018-06-28T15:39:28.959Z,25.96
2018-06-28T15:41:55.910Z,25.65
2018-06-28T15:44:22.830Z,25.67
2018-06-28T15:46:49.856Z,25.36
2018-06-28T15:49:16.926Z,25.82
2018-06-28T15:51:43.854Z,25.64
2018-06-28T15:54:10.781Z,25.52
2018-06-28T15:56:37.699Z,25.40
2018-06-28T15:59:04.649Z,25.63
2018-06-28T16:01:31.581Z,25.99
2018-06-28T16:03:58.497Z,26.07
2018-06-28T16:06:25.418Z,25.86
2018-06-28T16:08:52.333Z,26.04
2018-06-28T16:11:19.253Z,26.39
2018-06-28T16:13:46.153Z,26.08
2018-06-28T16:16:13.076Z,26.24
2018-06-28T16:18:39.981Z,25.76
2018-06-28T16:21:06.957Z,25.78
2018-06-28T16:23:34.017Z,25.74
2018-06-28T16:26:01.007Z,25.64
2018-06-28T16:28:27.937Z,25.71
2018-06-28T16:30:54.869Z,25.59
2018-06-28T16:33:21.797Z,25.75
2018-06-28T16:35:48.747Z,25.69
2018-06-28T16:38:15.690Z,25.77
2018-06-28T16:40:42.650Z,25.78
2018-06-28T16:43:09.558Z,25.25
2018-06-28T16:45:36.493Z,25.54
2018-06-28T16:48:04.289Z,25.66
2018-06-28T16:50:31.253Z,25.53
2018-06-28T16:52:58.355Z,25.71
2018-06-28T16:55:26.082Z,25.47
2018-06-28T16:57:53.086Z,25.49
2018-06-28T17:00:19.937Z,25.60
2018-06-28T17:02:46.911Z,25.45
2018-06-28T17:05:13.845Z,25.08
2018-06-28T17:07:40.888Z,25.41
2018-06-28T17:10:07.848Z,25.30
2018-06-28T17:12:35.519Z,25.41
2018-06-28T17:15:02.466Z,25.11
2018-06-28T17:17:29.484Z,25.00
2018-06-28T17:19:56.431Z,25.35
2018-06-28T17:22:23.373Z,25.32
2018-06-28T17:24:50.383Z,25.20
2018-06-28T17:27:17.489Z,25.21
2018-06-28T17:29:44.413Z,25.16
2018-06-28T17:32:11.349Z,25.41
2018-06-28T17:34:38.277Z,25.03
2018-06-28T17:37:05.195Z,25.09
2018-06-28T17:39:32.126Z,25.28
2018-06-28T17:41:59.069Z,25.22
2018-06-28T17:44:26.413Z,25.06
2018-06-28T17:46:53.633Z,25.19
2018-06-28T17:49:20.555Z,25.02
2018-06-28T17:51:47.517Z,24.89
2018-06-28T17:54:14.445Z,24.84
2018-06-28T17:56:41.403Z,24.74
2018-06-28T17:59:08.333Z,24.66
2018-06-28T18:01:35.254Z,24.60
2018-06-28T18:04:02.190Z,24.64
2018-06-28T18:06:29.125Z,24.55
2018-06-28T18:08:56.093Z,24.48
2018-06-28T18:11:22.985Z,24.40
2018-06-28T18:13:49.917Z,24.55
2018-06-28T18:16:16.815Z,24.66
2018-06-28T18:18:43.745Z,24.42
2018-06-28T18:21:10.671Z,24.33
2018-06-28T18:23:37.676Z,24.20
2018-06-28T18:26:05.005Z,24.14
2018-06-28T18:28:31.929Z,24.12
2018-06-28T18:30:59.032Z,24.09
2018-06-28T18:33:25.988Z,24.09
2018-06-28T18:35:52.885Z,23.96
2018-06-28T18:38:19.847Z,23.94
2018-06-28T18:40:46.696Z,23.89
2018-06-28T18:43:13.589Z,23.84
2018-06-28T18:45:40.505Z,23.74
2018-06-28T18:48:07.408Z,23.66
2018-06-28T18:50:34.384Z,23.65
2018-06-28T18:53:01.333Z,23.53
2018-06-28T18:55:28.245Z,23.54
2018-06-28T18:57:55.158Z,23.41
2018-06-28T19:00:22.045Z,23.25
2018-06-28T19:02:48.946Z,23.19
2018-06-28T19:05:15.829Z,23.16
2018-06-28T19:07:42.726Z,23.11
2018-06-28T19:10:15.366Z,22.99
2018-06-28T19:12:42.257Z,22.89
2018-06-28T19:15:14.981Z,22.84
2018-06-28T19:17:41.899Z,22.76
2018-06-28T19:20:08.796Z,22.61
2018-06-28T19:22:41.594Z,22.49
2018-06-28T19:25:08.486Z,22.39
2018-06-28T19:27:35.481Z,22.41
2018-06-28T19:30:08.235Z,22.24
2018-06-28T19:32:35.447Z,22.23
2018-06-28T19:35:02.906Z,22.18
2018-06-28T19:37:35.676Z,22.13
2018-06-28T19:40:09.250Z,22.01
2018-06-28T19:42:41.932Z,21.95
2018-06-28T19:45:08.930Z,21.82
2018-06-28T19:47:36.393Z,21.68
2018-06-28T19:50:09.360Z,21.68
2018-06-28T19:52:42.000Z,21.24
2018-06-28T19:55:08.922Z,20.99
2018-06-28T19:57:35.857Z,20.82
2018-06-28T20:00:02.847Z,20.69
2018-06-28T20:02:35.482Z,20.86
2018-06-28T20:05:03.222Z,20.83
2018-06-28T20:07:30.159Z,20.67
2018-06-28T20:09:57.246Z,20.47
2018-06-28T20:12:30.316Z,20.25
2018-06-28T20:15:02.974Z,20.12
2018-06-28T20:17:35.734Z,20.04
2018-06-28T20:20:08.409Z,19.85
2018-06-28T20:22:35.320Z,19.82
2018-06-28T20:25:02.392Z,19.84
2018-06-28T20:27:35.052Z,19.90
2018-06-28T20:30:07.861Z,19.85
2018-06-28T20:32:40.465Z,19.53
2018-06-28T20:35:07.452Z,19.40
2018-06-28T20:37:34.385Z,19.32
2018-06-28T20:40:01.304Z,19.30
2018-06-28T20:42:28.232Z,19.13
2018-06-28T20:44:55.175Z,19.05
2018-06-28T20:47:22.200Z,19.09
2018-06-28T20:49:49.154Z,19.14
2018-06-28T20:52:16.083Z,19.31
2018-06-28T20:54:43.033Z,19.31
2018-06-28T20:57:09.957Z,19.21
2018-06-28T20:59:36.881Z,19.05
2018-06-28T21:02:03.816Z,19.19
2018-06-28T21:04:30.770Z,19.26
2018-06-28T21:06:57.679Z,19.01
2018-06-28T21:09:24.596Z,18.70
2018-06-28T21:11:51.516Z,18.51
2018-06-28T21:14:19.216Z,18.51
2018-06-28T21:16:46.126Z,18.58
2018-06-28T21:19:13.061Z,18.43
2018-06-28T21:21:39.974Z,18.25
2018-06-28T21:24:06.896Z,18.28
2018-06-28T21:26:33.820Z,18.18
2018-06-28T21:29:00.726Z,18.29
2018-06-28T21:31:27.646Z,18.17
2018-06-28T21:33:54.548Z,18.28
2018-06-28T21:36:21.461Z,18.47
2018-06-28T21:38:48.364Z,18.60
2018-06-28T21:41:15.289Z,18.54
2018-06-28T21:43:42.198Z,18.66
2018-06-28T21:46:09.113Z,18.65
2018-06-28T21:48:42.681Z,18.75
2018-06-28T21:51:09.617Z,18.75
2018-06-28T21:53:36.532Z,18.70
2018-06-28T21:56:03.460Z,18.64
2018-06-28T21:58:30.375Z,18.59
2018-06-28T22:00:57.305Z,18.62
2018-06-28T22:03:24.197Z,18.47
2018-06-28T22:05:51.107Z,18.42
2018-06-28T22:08:18.017Z,18.27
2018-06-28T22:10:44.929Z,18.25
2018-06-28T22:13:11.824Z,18.15
2018-06-28T22:15:38.732Z,18.07
2018-06-28T22:18:05.633Z,18.06
2018-06-28T22:20:33.260Z,17.98
2018-06-28T22:23:00.173Z,17.92
2018-06-28T22:25:28.161Z,17.88
2018-06-28T22:27:55.061Z,17.83
2018-06-28T22:30:22.368Z,17.78
2018-06-28T22:32:49.290Z,17.72
2018-06-28T22:35:16.196Z,17.69
2018-06-28T22:37:44.173Z,17.66
2018-06-28T22:40:11.072Z,17.63
2018-06-28T22:42:37.960Z,17.59
2018-06-28T22:45:05.209Z,17.56
2018-06-28T22:47:32.525Z,17.59
2018-06-28T22:49:59.421Z,17.57
2018-06-28T22:52:26.352Z,17.53
2018-06-28T22:54:53.240Z,17.53
2018-06-28T22:57:20.189Z,17.46
2018-06-28T22:59:47.085Z,17.47
2018-06-28T23:02:14.009Z,17.48
2018-06-28T23:04:40.929Z,17.43
2018-06-28T23:07:07.856Z,17.43
2018-06-28T23:09:34.749Z,17.40
2018-06-28T23:12:01.670Z,17.36
2018-06-28T23:14:28.579Z,17.34
2018-06-28T23:16:55.477Z,17.31
2018-06-28T23:19:22.460Z,17.26
2018-06-28T23:21:49.388Z,17.21
2018-06-28T23:24:16.300Z,17.18
2018-06-28T23:26:43.213Z,17.16
2018-06-28T23:29:10.685Z,17.13
2018-06-28T23:31:38.589Z,17.08
2018-06-28T23:34:05.681Z,17.02
2018-06-28T23:36:32.582Z,16.96
2018-06-28T23:38:59.484Z,16.88
2018-06-28T23:41:26.394Z,16.87
2018-06-28T23:43:53.436Z,16.82
2018-06-28T23:46:20.335Z,16.81
2018-06-28T23:48:47.312Z,16.83
2018-06-28T23:51:14.213Z,16.74
2018-06-28T23:53:41.225Z,16.70
2018-06-28T23:56:08.124Z,16.70
2018-06-28T23:58:35.048Z,16.63
